createdAt,value
2022-09-20T00:02:18.002Z,9.20
2022-09-20T00:04:44.428Z,9.15
2022-09-20T00:07:10.851Z,9.09
2022-09-20T00:09:37.208Z,8.96
2022-09-20T00:12:03.760Z,8.86
2022-09-20T00:14:30.667Z,8.84
2022-09-20T00:16:57.062Z,8.83
2022-09-20T00:19:23.491Z,8.73
2022-09-20T00:21:49.933Z,8.71
2022-09-20T00:24:16.386Z,8.71
2022-09-20T00:26:42.743Z,8.70
2022-09-20T00:29:09.244Z,8.61
2022-09-20T00:31:39.051Z,8.55
2022-09-20T00:34:24.453Z,8.55
2022-09-20T00:36:50.835Z,8.57
2022-09-20T00:39:17.303Z,8.61
2022-09-20T00:41:44.967Z,8.58
2022-09-20T00:44:46.044Z,8.66
2022-09-20T00:47:28.611Z,8.72
2022-09-20T00:50:21.778Z,8.75
2022-09-20T00:52:53.739Z,8.65
2022-09-20T00:55:21.466Z,8.67
2022-09-20T00:57:48.327Z,8.56
2022-09-20T01:00:15.244Z,8.58
2022-09-20T01:02:47.215Z,8.66
2022-09-20T01:05:15.759Z,8.64
2022-09-20T01:07:44.215Z,8.54
2022-09-20T01:10:10.623Z,8.55
2022-09-20T01:12:40.287Z,8.54
2022-09-20T01:15:08.256Z,8.45
2022-09-20T01:17:37.999Z,8.48
2022-09-20T01:20:22.656Z,8.43
2022-09-20T01:23:01.262Z,8.38
2022-09-20T01:25:47.318Z,8.44
2022-09-20T01:28:15.237Z,8.36
2022-09-20T01:30:51.144Z,8.42
2022-09-20T01:33:28.122Z,8.44
2022-09-20T01:35:57.245Z,8.49
2022-09-20T01:38:42.283Z,8.51
2022-09-20T01:41:15.442Z,8.50
2022-09-20T01:44:03.427Z,8.56
2022-09-20T01:46:33.504Z,8.55
2022-09-20T01:49:44.093Z,8.48
2022-09-20T01:52:36.449Z,8.40
2022-09-20T01:55:20.778Z,8.36
2022-09-20T01:57:59.624Z,8.24
2022-09-20T02:00:30.990Z,8.25
2022-09-20T02:03:09.528Z,8.19
2022-09-20T02:05:46.449Z,8.12
2022-09-20T02:08:31.112Z,8.13
2022-09-20T02:11:25.580Z,8.07
2022-09-20T02:14:45.627Z,7.99
2022-09-20T02:17:37.900Z,7.84
2022-09-20T02:20:18.787Z,7.73
2022-09-20T02:23:20.645Z,7.54
2022-09-20T02:25:57.572Z,7.56
2022-09-20T02:29:01.214Z,7.45
2022-09-20T02:31:50.680Z,7.47
2022-09-20T02:34:35.386Z,7.56
2022-09-20T02:37:21.680Z,7.60
2022-09-20T02:40:19.922Z,7.60
2022-09-20T02:43:05.035Z,7.68
2022-09-20T02:45:41.913Z,7.64
2022-09-20T02:48:08.655Z,7.54
2022-09-20T02:50:52.437Z,7.52
2022-09-20T02:53:46.189Z,7.53
2022-09-20T02:56:21.068Z,7.56
2022-09-20T02:59:11.672Z,7.54
2022-09-20T03:01:50.610Z,7.50
2022-09-20T03:05:06.993Z,7.39
2022-09-20T03:08:15.584Z,7.40
2022-09-20T03:11:03.714Z,7.33
2022-09-20T03:13:43.672Z,7.35
2022-09-20T03:16:21.381Z,7.35
2022-09-20T03:19:17.135Z,7.35
2022-09-20T03:21:57.744Z,7.33
2022-09-20T03:24:55.072Z,7.30
2022-09-20T03:27:49.965Z,7.18
2022-09-20T03:30:22.370Z,7.11
2022-09-20T03:33:15.227Z,7.05
2022-09-20T03:36:22.998Z,7.00
2022-09-20T03:39:07.457Z,6.92
2022-09-20T03:42:02.662Z,6.72
2022-09-20T03:45:01.366Z,6.67
2022-09-20T03:47:47.927Z,6.64
2022-09-20T03:50:46.390Z,6.64
2022-09-20T03:53:27.785Z,6.68
2022-09-20T03:56:31.039Z,6.69
2022-09-20T03:58:57.365Z,6.69
2022-09-20T04:01:48.742Z,6.70
2022-09-20T04:04:50.846Z,6.81
2022-09-20T04:07:40.739Z,6.89
2022-09-20T04:10:32.371Z,7.00
2022-09-20T04:13:19.876Z,7.05
2022-09-20T04:15:59.291Z,7.12
2022-09-20T04:18:58.179Z,7.20
2022-09-20T04:21:34.376Z,7.24
2022-09-20T04:24:15.923Z,7.27
2022-09-20T04:26:50.984Z,7.21
2022-09-20T04:29:32.487Z,7.20
2022-09-20T04:32:17.802Z,7.18
2022-09-20T04:35:10.851Z,7.12
2022-09-20T04:37:38.398Z,6.87
2022-09-20T04:40:43.668Z,6.64
2022-09-20T04:43:39.542Z,6.56
2022-09-20T04:46:41.196Z,6.50
2022-09-20T04:49:33.623Z,6.42
2022-09-20T04:52:26.169Z,6.69
2022-09-20T04:55:06.046Z,6.64
2022-09-20T04:57:44.232Z,6.60
2022-09-20T05:00:16.858Z,6.61
2022-09-20T05:02:55.396Z,6.65
2022-09-20T05:05:46.539Z,6.69
2022-09-20T05:08:22.976Z,6.71
2022-09-20T05:11:10.955Z,6.71
2022-09-20T05:14:13.748Z,6.69
2022-09-20T05:16:58.956Z,6.69
2022-09-20T05:19:28.341Z,6.71
2022-09-20T05:22:06.713Z,6.77
2022-09-20T05:25:01.108Z,6.56
2022-09-20T05:28:04.952Z,6.59
2022-09-20T05:30:39.579Z,6.53
2022-09-20T05:33:15.376Z,6.72
2022-09-20T05:36:17.330Z,7.47
2022-09-20T05:39:02.781Z,8.12
2022-09-20T05:41:48.177Z,8.66
2022-09-20T05:44:23.448Z,9.48
2022-09-20T05:47:08.231Z,9.78
2022-09-20T05:50:08.467Z,9.53
2022-09-20T05:52:52.840Z,9.50
2022-09-20T05:56:02.677Z,9.89
2022-09-20T05:59:02.112Z,10.25
2022-09-20T06:01:40.095Z,10.35
2022-09-20T06:04:17.942Z,11.15
2022-09-20T06:06:53.704Z,11.91
2022-09-20T06:09:42.640Z,13.00
2022-09-20T06:12:15.160Z,14.39
2022-09-20T06:15:11.288Z,15.76
2022-09-20T06:17:48.078Z,16.32
2022-09-20T06:20:33.057Z,16.82
2022-09-20T06:23:03.770Z,17.30
2022-09-20T06:25:33.279Z,17.79
2022-09-20T06:28:20.993Z,17.42
2022-09-20T06:30:49.969Z,16.51
2022-09-20T06:33:28.375Z,15.43
2022-09-20T06:36:21.408Z,14.55
2022-09-20T06:39:26.629Z,14.14
2022-09-20T06:41:54.387Z,14.08
2022-09-20T06:44:20.778Z,13.95
2022-09-20T06:46:47.645Z,13.71
2022-09-20T06:49:14.016Z,12.54
2022-09-20T06:51:41.365Z,13.17
2022-09-20T06:54:17.156Z,13.08
2022-09-20T06:56:45.496Z,13.54
2022-09-20T06:59:12.758Z,14.59
2022-09-20T07:01:39.401Z,15.81
2022-09-20T07:04:06.440Z,16.67
2022-09-20T07:06:33.481Z,17.38
2022-09-20T07:08:59.918Z,18.10
2022-09-20T07:11:26.516Z,18.59
2022-09-20T07:13:55.242Z,18.70
2022-09-20T07:16:22.127Z,18.92
2022-09-20T07:18:49.070Z,18.85
2022-09-20T07:21:17.738Z,18.77
2022-09-20T07:23:48.541Z,18.21
2022-09-20T07:26:25.743Z,17.89
2022-09-20T07:28:52.877Z,17.14
2022-09-20T07:31:25.591Z,16.21
2022-09-20T07:33:52.182Z,15.58
2022-09-20T07:36:18.871Z,15.55
2022-09-20T07:38:50.323Z,15.25
2022-09-20T07:41:22.678Z,15.07
2022-09-20T07:43:50.720Z,13.75
2022-09-20T07:46:17.306Z,14.17
2022-09-20T07:48:44.190Z,14.73
2022-09-20T07:51:13.441Z,14.65
2022-09-20T07:53:40.871Z,14.20
2022-09-20T07:56:11.516Z,14.67
2022-09-20T07:58:38.393Z,14.87
2022-09-20T08:01:13.290Z,14.81
2022-09-20T08:03:40.418Z,15.19
2022-09-20T08:06:09.628Z,15.38
2022-09-20T08:08:43.426Z,14.71
2022-09-20T08:11:16.140Z,14.84
2022-09-20T08:16:43.300Z,16.08
2022-09-20T08:19:15.369Z,15.90
2022-09-20T08:21:41.851Z,16.31
2022-09-20T08:24:08.279Z,16.49
2022-09-20T08:26:37.579Z,16.98
2022-09-20T08:29:05.896Z,17.14
2022-09-20T08:31:35.410Z,16.36
2022-09-20T08:34:03.799Z,16.79
2022-09-20T08:36:36.111Z,17.21
2022-09-20T08:42:06.254Z,18.11
2022-09-20T08:44:45.420Z,18.71
2022-09-20T08:47:25.004Z,18.69
2022-09-20T08:49:57.634Z,18.81
2022-09-20T08:52:37.093Z,18.72
2022-09-20T08:55:27.901Z,18.47
2022-09-20T08:57:56.854Z,18.09
2022-09-20T09:00:27.782Z,17.60
2022-09-20T09:02:57.069Z,17.81
2022-09-20T09:05:44.021Z,17.29
2022-09-20T09:08:28.104Z,17.38
2022-09-20T09:11:02.051Z,17.36
2022-09-20T09:13:37.426Z,17.90
2022-09-20T09:16:13.013Z,18.26
2022-09-20T09:18:42.396Z,18.89
2022-09-20T09:21:17.576Z,19.46
2022-09-20T09:24:06.107Z,19.99
2022-09-20T09:26:40.765Z,20.04
2022-09-20T09:29:18.060Z,19.95
2022-09-20T09:31:50.652Z,19.89
2022-09-20T09:34:36.088Z,20.15
2022-09-20T09:37:02.763Z,19.98
2022-09-20T09:39:35.840Z,20.50
2022-09-20T09:42:25.786Z,19.85
2022-09-20T09:44:52.304Z,20.19
2022-09-20T09:47:29.234Z,20.06
2022-09-20T09:50:02.656Z,21.62
2022-09-20T09:52:33.283Z,22.49
2022-09-20T09:55:05.143Z,23.16
2022-09-20T09:57:37.896Z,23.75
2022-09-20T10:00:22.034Z,23.25
2022-09-20T10:03:04.031Z,23.58
2022-09-20T10:05:40.762Z,23.99
2022-09-20T10:08:39.656Z,25.42
2022-09-20T10:11:30.113Z,25.19
2022-09-20T10:14:38.032Z,26.04
2022-09-20T10:17:23.172Z,25.81
2022-09-20T10:20:14.709Z,26.50
2022-09-20T10:23:06.817Z,26.46
2022-09-20T10:26:08.637Z,26.42
2022-09-20T10:28:54.497Z,26.07
2022-09-20T10:31:33.261Z,23.82
2022-09-20T10:34:14.118Z,22.49
2022-09-20T10:36:51.590Z,21.06
2022-09-20T10:39:33.363Z,20.12
2022-09-20T10:43:00.927Z,19.64
2022-09-20T10:46:14.497Z,18.47
2022-09-20T10:48:48.539Z,17.67
2022-09-20T10:51:35.121Z,17.69
2022-09-20T10:54:23.621Z,17.65
2022-09-20T10:56:56.200Z,17.69
2022-09-20T10:59:36.957Z,17.46
2022-09-20T11:02:21.526Z,18.52
2022-09-20T11:05:26.157Z,19.81
2022-09-20T11:08:05.974Z,20.57
2022-09-20T11:10:42.378Z,20.24
2022-09-20T11:13:27.675Z,20.58
2022-09-20T11:16:18.288Z,23.25
2022-09-20T11:18:54.634Z,25.51
2022-09-20T11:21:34.019Z,27.03
2022-09-20T11:24:23.535Z,25.77
2022-09-20T11:27:25.197Z,24.39
2022-09-20T11:30:06.140Z,23.96
2022-09-20T11:32:46.677Z,23.71
2022-09-20T11:35:16.028Z,22.26
2022-09-20T11:37:53.074Z,21.00
2022-09-20T11:40:26.872Z,19.71
2022-09-20T11:42:59.149Z,18.40
2022-09-20T11:45:28.573Z,17.40
2022-09-20T11:48:02.788Z,16.64
2022-09-20T11:51:01.012Z,16.13
2022-09-20T11:54:12.559Z,16.07
2022-09-20T11:56:39.937Z,16.15
2022-09-20T11:59:22.333Z,16.74
2022-09-20T12:01:48.834Z,17.95
2022-09-20T12:04:32.295Z,19.25
2022-09-20T12:07:10.531Z,22.37
2022-09-20T12:09:42.691Z,20.82
2022-09-20T12:12:32.694Z,18.74
2022-09-20T12:15:02.302Z,18.97
2022-09-20T12:17:46.930Z,19.42
2022-09-20T12:20:35.231Z,20.83
2022-09-20T12:23:42.258Z,20.70
2022-09-20T12:26:15.706Z,20.08
2022-09-20T12:28:50.048Z,20.37
2022-09-20T12:31:22.233Z,21.08
2022-09-20T12:34:16.032Z,22.82
2022-09-20T12:36:46.543Z,24.93
2022-09-20T12:39:16.262Z,26.38
2022-09-20T12:42:04.427Z,28.05
2022-09-20T12:44:44.505Z,28.45
2022-09-20T12:47:10.857Z,28.73
2022-09-20T12:50:02.144Z,28.56
2022-09-20T12:52:58.438Z,29.32
2022-09-20T12:55:30.789Z,29.84
2022-09-20T12:58:17.115Z,30.18
2022-09-20T13:00:46.773Z,29.65
2022-09-20T13:03:21.582Z,29.53
2022-09-20T13:05:52.563Z,28.41
2022-09-20T13:08:25.192Z,28.78
2022-09-20T13:11:06.816Z,29.93
2022-09-20T13:13:55.631Z,28.05
2022-09-20T13:16:28.885Z,26.88
2022-09-20T13:19:22.777Z,24.78
2022-09-20T13:22:14.842Z,23.70
2022-09-20T13:24:45.007Z,22.97
2022-09-20T13:27:21.026Z,22.14
2022-09-20T13:29:47.550Z,21.56
2022-09-20T13:32:31.520Z,20.45
2022-09-20T13:35:10.014Z,19.63
2022-09-20T13:37:52.790Z,18.65
2022-09-20T13:40:33.733Z,20.91
2022-09-20T13:43:22.554Z,23.03
2022-09-20T13:45:53.876Z,24.51
2022-09-20T13:48:24.817Z,22.90
2022-09-20T13:50:53.657Z,21.20
2022-09-20T13:53:40.180Z,20.52
2022-09-20T13:56:19.454Z,18.33
2022-09-20T13:58:46.128Z,18.73
2022-09-20T14:01:44.177Z,18.40
2022-09-20T14:04:16.266Z,18.21
2022-09-20T14:06:42.770Z,18.23
2022-09-20T14:09:28.686Z,18.12
2022-09-20T14:11:56.098Z,17.84
2022-09-20T14:14:24.792Z,17.71
2022-09-20T14:16:53.054Z,17.62
2022-09-20T14:19:22.933Z,17.95
2022-09-20T14:21:49.834Z,19.86
2022-09-20T14:24:16.519Z,21.46
2022-09-20T14:26:59.382Z,22.64
2022-09-20T14:29:30.733Z,23.66
2022-09-20T14:32:06.257Z,24.29
2022-09-20T14:34:37.795Z,24.63
2022-09-20T14:37:13.601Z,24.56
2022-09-20T14:39:53.889Z,22.94
2022-09-20T14:42:41.755Z,22.44
2022-09-20T14:45:20.251Z,22.12
2022-09-20T14:47:57.375Z,20.75
2022-09-20T14:50:28.807Z,20.68
2022-09-20T14:53:21.490Z,20.27
2022-09-20T14:56:09.491Z,19.04
2022-09-20T14:59:13.950Z,18.82
2022-09-20T15:01:44.985Z,18.95
2022-09-20T15:04:22.877Z,18.01
2022-09-20T15:06:50.721Z,17.67
2022-09-20T15:09:19.259Z,16.88
2022-09-20T15:11:45.741Z,17.45
2022-09-20T15:14:12.315Z,17.43
2022-09-20T15:16:38.868Z,17.18
2022-09-20T15:19:07.943Z,17.00
2022-09-20T15:21:34.334Z,16.84
2022-09-20T15:24:00.949Z,16.94
2022-09-20T15:26:27.330Z,16.76
2022-09-20T15:28:54.004Z,16.39
2022-09-20T15:31:21.149Z,16.49
2022-09-20T15:33:47.764Z,16.31
2022-09-20T15:36:15.296Z,16.01
2022-09-20T15:38:41.672Z,15.84
2022-09-20T15:41:08.162Z,15.78
2022-09-20T15:43:34.581Z,15.48
2022-09-20T15:46:17.721Z,15.48
2022-09-20T15:48:44.089Z,15.45
2022-09-20T15:51:11.634Z,15.35
2022-09-20T15:53:44.975Z,15.23
2022-09-20T15:56:21.032Z,15.22
2022-09-20T15:58:50.435Z,15.01
2022-09-20T16:01:18.404Z,15.20
2022-09-20T16:03:46.098Z,15.39
2022-09-20T16:06:13.257Z,15.57
2022-09-20T16:08:41.569Z,15.71
2022-09-20T16:11:14.383Z,15.71
2022-09-20T16:13:40.948Z,15.66
2022-09-20T16:16:09.824Z,15.49
2022-09-20T16:18:55.297Z,15.63
2022-09-20T16:21:22.112Z,15.59
2022-09-20T16:23:51.417Z,15.62
2022-09-20T16:26:19.586Z,15.39
2022-09-20T16:28:47.732Z,15.29
2022-09-20T16:31:32.702Z,15.09
2022-09-20T16:34:03.782Z,14.72
2022-09-20T16:36:31.620Z,14.36
2022-09-20T16:38:58.562Z,14.06
2022-09-20T16:41:27.095Z,13.34
2022-09-20T16:43:53.922Z,13.13
2022-09-20T16:46:22.610Z,12.77
2022-09-20T16:48:53.028Z,12.73
2022-09-20T16:51:25.551Z,12.93
2022-09-20T16:53:55.659Z,12.83
2022-09-20T16:56:24.573Z,12.82
2022-09-20T16:58:51.658Z,12.70
2022-09-20T17:01:18.602Z,12.68
2022-09-20T17:03:45.996Z,12.50
2022-09-20T17:06:14.500Z,12.48
2022-09-20T17:08:42.140Z,12.52
2022-09-20T17:11:10.556Z,12.36
2022-09-20T17:13:41.525Z,12.12
2022-09-20T17:16:37.828Z,12.09
2022-09-20T17:19:10.933Z,11.88
2022-09-20T17:21:40.076Z,11.79
2022-09-20T17:24:07.612Z,11.76
2022-09-20T17:26:37.545Z,11.69
2022-09-20T17:29:06.555Z,11.57
2022-09-20T17:31:39.161Z,11.52
2022-09-20T17:34:09.386Z,11.46
2022-09-20T17:36:42.011Z,11.48
2022-09-20T17:39:10.952Z,11.44
2022-09-20T17:41:38.811Z,11.38
2022-09-20T17:44:09.808Z,11.33
2022-09-20T17:46:39.247Z,11.27
2022-09-20T17:49:11.832Z,11.25
2022-09-20T17:51:43.676Z,11.24
2022-09-20T17:54:14.333Z,11.13
2022-09-20T17:56:46.382Z,11.08
2022-09-20T17:59:17.200Z,10.95
2022-09-20T18:01:45.752Z,10.88
2022-09-20T18:04:12.966Z,11.02
2022-09-20T18:06:47.016Z,10.95
2022-09-20T18:09:18.389Z,10.96
2022-09-20T18:11:49.004Z,10.99
2022-09-20T18:14:24.035Z,10.79
2022-09-20T18:16:55.874Z,10.87
2022-09-20T18:19:22.839Z,10.88
2022-09-20T18:21:49.993Z,10.92
2022-09-20T18:24:16.465Z,10.91
2022-09-20T18:26:44.036Z,10.91
2022-09-20T18:29:12.641Z,10.79
2022-09-20T18:31:43.208Z,10.97
2022-09-20T18:34:17.741Z,10.98
2022-09-20T18:36:47.786Z,11.00
2022-09-20T18:39:14.366Z,10.84
2022-09-20T18:41:43.935Z,10.91
2022-09-20T18:44:14.090Z,10.92
2022-09-20T18:46:40.764Z,10.84
2022-09-20T18:49:09.315Z,10.82
2022-09-20T18:51:39.792Z,10.63
2022-09-20T18:54:11.209Z,10.73
2022-09-20T18:56:40.065Z,10.77
2022-09-20T18:59:24.992Z,10.80
2022-09-20T19:01:54.961Z,10.82
2022-09-20T19:04:39.940Z,10.93
2022-09-20T19:07:24.802Z,10.95
2022-09-20T19:10:06.037Z,11.00
2022-09-20T19:12:39.284Z,11.03
2022-09-20T19:15:21.325Z,11.02
2022-09-20T19:18:11.208Z,11.00
2022-09-20T19:20:53.441Z,11.06
2022-09-20T19:24:03.266Z,11.00
2022-09-20T19:26:31.881Z,10.95
2022-09-20T19:29:00.131Z,10.87
2022-09-20T19:31:28.145Z,10.87
2022-09-20T19:33:56.790Z,10.79
2022-09-20T19:36:25.467Z,10.78
2022-09-20T19:39:09.572Z,10.79
2022-09-20T19:41:46.140Z,10.75
2022-09-20T19:44:32.289Z,10.81
2022-09-20T19:47:20.972Z,10.80
2022-09-20T19:49:56.182Z,10.85
2022-09-20T19:52:23.767Z,10.75
2022-09-20T19:54:51.636Z,10.80
2022-09-20T19:57:39.705Z,10.76
2022-09-20T20:00:09.470Z,10.74
2022-09-20T20:02:36.318Z,10.75
2022-09-20T20:05:03.678Z,10.82
2022-09-20T20:07:41.236Z,10.61
2022-09-20T20:10:25.781Z,10.70
2022-09-20T20:13:52.512Z,9.90
2022-09-20T20:16:39.189Z,9.54
2022-09-20T20:19:23.462Z,9.72
2022-09-20T20:21:57.581Z,9.82
2022-09-20T20:24:36.786Z,10.07
2022-09-20T20:27:03.965Z,10.08
2022-09-20T20:29:30.391Z,9.98
2022-09-20T20:31:56.802Z,10.01
2022-09-20T20:34:24.381Z,10.16
2022-09-20T20:36:52.353Z,10.30
2022-09-20T20:39:18.744Z,10.38
2022-09-20T20:41:52.349Z,10.26
2022-09-20T20:44:20.741Z,10.45
2022-09-20T20:46:47.919Z,10.53
2022-09-20T20:49:15.405Z,10.58
2022-09-20T20:51:42.044Z,10.51
2022-09-20T20:54:10.028Z,10.54
2022-09-20T20:56:36.480Z,10.52
2022-09-20T20:59:04.506Z,10.47
2022-09-20T21:01:32.809Z,10.37
2022-09-20T21:04:00.177Z,10.32
2022-09-20T21:06:29.507Z,10.27
2022-09-20T21:08:56.742Z,10.23
2022-09-20T21:11:25.865Z,10.08
2022-09-20T21:13:57.694Z,10.03
2022-09-20T21:16:26.969Z,9.99
2022-09-20T21:18:53.411Z,9.96
2022-09-20T21:21:29.817Z,9.92
2022-09-20T21:23:58.240Z,9.82
2022-09-20T21:26:27.686Z,9.72
2022-09-20T21:28:59.511Z,9.60
2022-09-20T21:31:30.829Z,9.53
2022-09-20T21:33:57.659Z,9.43
2022-09-20T21:36:26.867Z,9.31
2022-09-20T21:38:53.712Z,9.30
2022-09-20T21:41:25.110Z,9.15
2022-09-20T21:43:53.824Z,9.03
2022-09-20T21:46:22.996Z,8.99
2022-09-20T21:48:50.527Z,8.87
2022-09-20T21:51:18.540Z,8.83
2022-09-20T21:53:45.286Z,8.66
2022-09-20T21:56:14.524Z,8.75
2022-09-20T21:58:41.156Z,8.71
2022-09-20T22:01:13.935Z,8.72
2022-09-20T22:03:45.321Z,8.65
2022-09-20T22:06:19.205Z,8.55
2022-09-20T22:08:50.685Z,8.41
2022-09-20T22:11:18.481Z,8.34
2022-09-20T22:13:47.272Z,8.39
2022-09-20T22:16:19.168Z,8.36
2022-09-20T22:18:46.787Z,8.16
2022-09-20T22:21:21.941Z,8.00
2022-09-20T22:23:50.611Z,8.01
2022-09-20T22:26:20.093Z,7.98
2022-09-20T22:28:49.630Z,7.91
2022-09-20T22:31:37.437Z,7.81
2022-09-20T22:34:07.164Z,7.83
2022-09-20T22:36:36.507Z,7.81
2022-09-20T22:39:04.383Z,7.76
2022-09-20T22:41:30.940Z,7.66
2022-09-20T22:43:57.348Z,7.60
2022-09-20T22:46:26.960Z,7.46
2022-09-20T22:48:53.564Z,7.46
2022-09-20T22:51:25.228Z,7.46
2022-09-20T22:53:52.659Z,7.34
2022-09-20T22:56:29.227Z,7.19
2022-09-20T22:58:56.847Z,7.11
2022-09-20T23:01:26.925Z,7.09
2022-09-20T23:03:56.359Z,7.11
2022-09-20T23:06:26.707Z,7.03
2022-09-20T23:08:55.841Z,6.97
2022-09-20T23:11:23.411Z,6.89
2022-09-20T23:13:54.745Z,6.83
2022-09-20T23:16:23.888Z,6.85
2022-09-20T23:18:51.373Z,6.87
2022-09-20T23:21:18.188Z,6.89
2022-09-20T23:23:45.287Z,6.83
2022-09-20T23:26:17.218Z,6.79
2022-09-20T23:28:46.208Z,6.82
2022-09-20T23:31:15.717Z,6.73
2022-09-20T23:33:54.658Z,6.68
2022-09-20T23:36:22.157Z,6.43
2022-09-20T23:38:49.356Z,6.53
2022-09-20T23:41:18.132Z,6.53
2022-09-20T23:43:44.978Z,6.56
2022-09-20T23:46:13.556Z,6.56
2022-09-20T23:48:44.066Z,6.55
2022-09-20T23:51:15.160Z,6.43
2022-09-20T23:53:42.813Z,6.38
2022-09-20T23:56:10.486Z,6.31
2022-09-20T23:58:38.785Z,6.24
